sensor_id;sensor_type;location;lat;lon;timestamp;P1;durP1;ratioP1;P2;durP2;ratioP2
15340;SDS011;7770;52.158;5.372;2022-08-16T00:00:22;20.40;;;18.73;;
15340;SDS011;7770;52.158;5.372;2022-08-16T00:03:11;21.00;;;19.17;;
15340;SDS011;7770;52.158;5.372;2022-08-16T00:05:57;20.73;;;19.03;;
15340;SDS011;7770;52.158;5.372;2022-08-16T00:08:43;21.23;;;19.37;;
15340;SDS011;7770;52.158;5.372;2022-08-16T00:11:29;20.73;;;18.90;;
15340;SDS011;7770;52.158;5.372;2022-08-16T00:14:18;20.50;;;18.90;;
15340;SDS011;7770;52.158;5.372;2022-08-16T00:17:09;22.10;;;20.20;;
15340;SDS011;7770;52.158;5.372;2022-08-16T00:19:55;21.53;;;19.67;;
15340;SDS011;7770;52.158;5.372;2022-08-16T00:22:42;22.13;;;20.17;;
15340;SDS011;7770;52.158;5.372;2022-08-16T00:25:29;22.77;;;20.67;;
15340;SDS011;7770;52.158;5.372;2022-08-16T00:28:15;22.67;;;20.87;;
15340;SDS011;7770;52.158;5.372;2022-08-16T00:31:01;23.53;;;21.53;;
15340;SDS011;7770;52.158;5.372;2022-08-16T00:33:48;24.23;;;22.27;;
15340;SDS011;7770;52.158;5.372;2022-08-16T00:36:34;23.33;;;21.30;;
15340;SDS011;7770;52.158;5.372;2022-08-16T00:39:21;23.13;;;21.30;;
15340;SDS011;7770;52.158;5.372;2022-08-16T00:42:07;22.83;;;20.83;;
15340;SDS011;7770;52.158;5.372;2022-08-16T00:44:54;22.37;;;20.37;;
15340;SDS011;7770;52.158;5.372;2022-08-16T00:47:44;23.13;;;21.03;;
15340;SDS011;7770;52.158;5.372;2022-08-16T00:50:33;21.27;;;19.77;;
15340;SDS011;7770;52.158;5.372;2022-08-16T00:53:21;21.23;;;19.43;;
15340;SDS011;7770;52.158;5.372;2022-08-16T00:56:11;21.77;;;19.87;;
15340;SDS011;7770;52.158;5.372;2022-08-16T00:59:00;21.20;;;19.30;;
15340;SDS011;7770;52.158;5.372;2022-08-16T01:01:47;20.97;;;19.27;;
15340;SDS011;7770;52.158;5.372;2022-08-16T01:04:33;21.00;;;19.17;;
15340;SDS011;7770;52.158;5.372;2022-08-16T01:07:20;20.70;;;19.00;;
15340;SDS011;7770;52.158;5.372;2022-08-16T01:10:06;21.13;;;19.23;;
15340;SDS011;7770;52.158;5.372;2022-08-16T01:12:52;20.87;;;19.00;;
15340;SDS011;7770;52.158;5.372;2022-08-16T01:15:40;20.43;;;18.77;;
15340;SDS011;7770;52.158;5.372;2022-08-16T01:18:35;20.37;;;18.77;;
15340;SDS011;7770;52.158;5.372;2022-08-16T01:21:44;20.10;;;18.33;;
15340;SDS011;7770;52.158;5.372;2022-08-16T01:24:43;20.20;;;18.50;;
15340;SDS011;7770;52.158;5.372;2022-08-16T01:27:49;21.70;;;19.67;;
15340;SDS011;7770;52.158;5.372;2022-08-16T01:30:39;23.87;;;21.97;;
15340;SDS011;7770;52.158;5.372;2022-08-16T01:33:27;24.10;;;22.30;;
15340;SDS011;7770;52.158;5.372;2022-08-16T01:36:13;25.57;;;23.40;;
15340;SDS011;7770;52.158;5.372;2022-08-16T01:39:00;26.97;;;24.57;;
15340;SDS011;7770;52.158;5.372;2022-08-16T01:41:55;26.50;;;24.23;;
15340;SDS011;7770;52.158;5.372;2022-08-16T01:44:41;27.50;;;25.10;;
15340;SDS011;7770;52.158;5.372;2022-08-16T01:47:27;28.23;;;25.80;;
15340;SDS011;7770;52.158;5.372;2022-08-16T01:50:15;28.67;;;26.23;;
15340;SDS011;7770;52.158;5.372;2022-08-16T01:53:02;27.70;;;25.30;;
15340;SDS011;7770;52.158;5.372;2022-08-16T01:55:48;27.83;;;25.33;;
15340;SDS011;7770;52.158;5.372;2022-08-16T01:58:34;28.27;;;25.67;;
15340;SDS011;7770;52.158;5.372;2022-08-16T02:01:20;28.23;;;25.63;;
15340;SDS011;7770;52.158;5.372;2022-08-16T02:04:07;28.53;;;25.93;;
15340;SDS011;7770;52.158;5.372;2022-08-16T02:06:53;26.43;;;24.23;;
15340;SDS011;7770;52.158;5.372;2022-08-16T02:09:39;28.20;;;25.67;;
15340;SDS011;7770;52.158;5.372;2022-08-16T02:12:26;27.47;;;25.17;;
15340;SDS011;7770;52.158;5.372;2022-08-16T02:15:14;28.27;;;26.07;;
15340;SDS011;7770;52.158;5.372;2022-08-16T02:18:02;28.33;;;25.97;;
15340;SDS011;7770;52.158;5.372;2022-08-16T02:20:49;27.77;;;25.57;;
15340;SDS011;7770;52.158;5.372;2022-08-16T02:23:37;26.80;;;24.70;;
15340;SDS011;7770;52.158;5.372;2022-08-16T02:26:24;27.53;;;24.90;;
15340;SDS011;7770;52.158;5.372;2022-08-16T02:29:10;27.27;;;24.97;;
15340;SDS011;7770;52.158;5.372;2022-08-16T02:31:56;26.83;;;24.63;;
15340;SDS011;7770;52.158;5.372;2022-08-16T02:34:43;27.30;;;24.93;;
15340;SDS011;7770;52.158;5.372;2022-08-16T02:37:29;27.37;;;25.07;;
15340;SDS011;7770;52.158;5.372;2022-08-16T02:40:16;26.87;;;24.63;;
15340;SDS011;7770;52.158;5.372;2022-08-16T02:43:02;27.30;;;24.80;;
15340;SDS011;7770;52.158;5.372;2022-08-16T02:45:49;27.70;;;25.17;;
15340;SDS011;7770;52.158;5.372;2022-08-16T02:48:35;28.43;;;25.87;;
15340;SDS011;7770;52.158;5.372;2022-08-16T02:51:23;26.90;;;24.60;;
15340;SDS011;7770;52.158;5.372;2022-08-16T02:54:10;27.70;;;25.40;;
15340;SDS011;7770;52.158;5.372;2022-08-16T02:56:59;28.07;;;25.47;;
15340;SDS011;7770;52.158;5.372;2022-08-16T02:59:45;26.93;;;24.63;;
15340;SDS011;7770;52.158;5.372;2022-08-16T03:02:31;27.20;;;24.80;;
15340;SDS011;7770;52.158;5.372;2022-08-16T03:05:17;26.97;;;24.57;;
15340;SDS011;7770;52.158;5.372;2022-08-16T03:08:03;26.93;;;24.63;;
15340;SDS011;7770;52.158;5.372;2022-08-16T03:10:49;26.97;;;24.30;;
15340;SDS011;7770;52.158;5.372;2022-08-16T03:13:36;25.97;;;23.80;;
15340;SDS011;7770;52.158;5.372;2022-08-16T03:16:23;27.53;;;25.03;;
15340;SDS011;7770;52.158;5.372;2022-08-16T03:19:10;27.57;;;24.97;;
15340;SDS011;7770;52.158;5.372;2022-08-16T03:21:56;26.33;;;24.03;;
15340;SDS011;7770;52.158;5.372;2022-08-16T03:24:42;27.63;;;25.03;;
15340;SDS011;7770;52.158;5.372;2022-08-16T03:27:28;28.20;;;25.70;;
15340;SDS011;7770;52.158;5.372;2022-08-16T03:30:18;27.47;;;25.13;;
15340;SDS011;7770;52.158;5.372;2022-08-16T03:33:08;27.40;;;25.00;;
15340;SDS011;7770;52.158;5.372;2022-08-16T03:35:54;27.30;;;24.87;;
15340;SDS011;7770;52.158;5.372;2022-08-16T03:38:44;28.03;;;25.63;;
15340;SDS011;7770;52.158;5.372;2022-08-16T03:41:30;27.57;;;25.27;;
15340;SDS011;7770;52.158;5.372;2022-08-16T03:44:16;28.10;;;25.67;;
15340;SDS011;7770;52.158;5.372;2022-08-16T03:47:03;28.60;;;26.13;;
15340;SDS011;7770;52.158;5.372;2022-08-16T03:49:49;27.37;;;25.17;;
15340;SDS011;7770;52.158;5.372;2022-08-16T03:52:35;27.40;;;25.10;;
15340;SDS011;7770;52.158;5.372;2022-08-16T03:55:21;28.93;;;26.43;;
15340;SDS011;7770;52.158;5.372;2022-08-16T03:58:07;29.20;;;26.70;;
15340;SDS011;7770;52.158;5.372;2022-08-16T04:00:53;30.60;;;27.83;;
15340;SDS011;7770;52.158;5.372;2022-08-16T04:03:39;29.37;;;26.77;;
15340;SDS011;7770;52.158;5.372;2022-08-16T04:06:25;31.77;;;28.97;;
15340;SDS011;7770;52.158;5.372;2022-08-16T04:09:12;31.33;;;28.40;;
15340;SDS011;7770;52.158;5.372;2022-08-16T04:11:58;31.60;;;28.83;;
15340;SDS011;7770;52.158;5.372;2022-08-16T04:14:44;33.27;;;30.47;;
15340;SDS011;7770;52.158;5.372;2022-08-16T04:17:31;33.13;;;30.40;;
15340;SDS011;7770;52.158;5.372;2022-08-16T04:20:17;33.40;;;30.17;;
15340;SDS011;7770;52.158;5.372;2022-08-16T04:23:04;34.33;;;31.17;;
15340;SDS011;7770;52.158;5.372;2022-08-16T04:25:52;35.17;;;32.27;;
15340;SDS011;7770;52.158;5.372;2022-08-16T04:28:38;35.00;;;32.00;;
15340;SDS011;7770;52.158;5.372;2022-08-16T04:31:24;36.03;;;33.07;;
15340;SDS011;7770;52.158;5.372;2022-08-16T04:34:10;36.40;;;33.30;;
15340;SDS011;7770;52.158;5.372;2022-08-16T04:36:56;35.83;;;32.80;;
15340;SDS011;7770;52.158;5.372;2022-08-16T04:39:43;37.03;;;33.83;;
15340;SDS011;7770;52.158;5.372;2022-08-16T04:42:29;37.63;;;34.40;;
15340;SDS011;7770;52.158;5.372;2022-08-16T04:45:15;36.40;;;33.30;;
15340;SDS011;7770;52.158;5.372;2022-08-16T04:48:03;37.50;;;34.47;;
15340;SDS011;7770;52.158;5.372;2022-08-16T04:50:49;37.67;;;34.07;;
15340;SDS011;7770;52.158;5.372;2022-08-16T04:53:35;38.03;;;34.67;;
15340;SDS011;7770;52.158;5.372;2022-08-16T04:56:22;36.27;;;32.97;;
15340;SDS011;7770;52.158;5.372;2022-08-16T04:59:08;36.67;;;33.57;;
15340;SDS011;7770;52.158;5.372;2022-08-16T05:01:55;36.00;;;32.77;;
15340;SDS011;7770;52.158;5.372;2022-08-16T05:04:41;37.17;;;34.07;;
15340;SDS011;7770;52.158;5.372;2022-08-16T05:07:27;35.73;;;32.53;;
15340;SDS011;7770;52.158;5.372;2022-08-16T05:10:13;36.30;;;33.10;;
15340;SDS011;7770;52.158;5.372;2022-08-16T05:12:59;35.67;;;32.50;;
15340;SDS011;7770;52.158;5.372;2022-08-16T05:15:47;34.70;;;31.57;;
15340;SDS011;7770;52.158;5.372;2022-08-16T05:18:33;32.80;;;30.00;;
15340;SDS011;7770;52.158;5.372;2022-08-16T05:21:20;33.23;;;30.17;;
15340;SDS011;7770;52.158;5.372;2022-08-16T05:24:07;30.77;;;27.93;;
15340;SDS011;7770;52.158;5.372;2022-08-16T05:26:53;30.77;;;28.07;;
15340;SDS011;7770;52.158;5.372;2022-08-16T05:29:39;31.67;;;28.97;;
15340;SDS011;7770;52.158;5.372;2022-08-16T05:32:25;31.20;;;28.60;;
15340;SDS011;7770;52.158;5.372;2022-08-16T05:35:12;30.30;;;27.87;;
15340;SDS011;7770;52.158;5.372;2022-08-16T05:37:58;32.13;;;29.33;;
15340;SDS011;7770;52.158;5.372;2022-08-16T05:40:44;32.30;;;29.50;;
15340;SDS011;7770;52.158;5.372;2022-08-16T05:43:30;32.93;;;30.17;;
15340;SDS011;7770;52.158;5.372;2022-08-16T05:46:16;35.77;;;32.87;;
15340;SDS011;7770;52.158;5.372;2022-08-16T05:49:03;36.43;;;33.43;;
15340;SDS011;7770;52.158;5.372;2022-08-16T05:51:49;38.13;;;34.93;;
15340;SDS011;7770;52.158;5.372;2022-08-16T05:54:37;39.00;;;35.80;;
15340;SDS011;7770;52.158;5.372;2022-08-16T05:57:24;39.10;;;35.80;;
15340;SDS011;7770;52.158;5.372;2022-08-16T06:00:10;41.20;;;37.83;;
15340;SDS011;7770;52.158;5.372;2022-08-16T06:02:58;40.27;;;36.60;;
15340;SDS011;7770;52.158;5.372;2022-08-16T06:05:44;40.97;;;37.67;;
15340;SDS011;7770;52.158;5.372;2022-08-16T06:08:30;40.13;;;36.67;;
15340;SDS011;7770;52.158;5.372;2022-08-16T06:11:16;40.53;;;36.90;;
15340;SDS011;7770;52.158;5.372;2022-08-16T06:14:03;39.77;;;36.27;;
15340;SDS011;7770;52.158;5.372;2022-08-16T06:16:50;41.90;;;38.23;;
15340;SDS011;7770;52.158;5.372;2022-08-16T06:19:37;41.60;;;38.03;;
15340;SDS011;7770;52.158;5.372;2022-08-16T06:22:23;42.20;;;38.53;;
15340;SDS011;7770;52.158;5.372;2022-08-16T06:25:09;43.93;;;40.03;;
15340;SDS011;7770;52.158;5.372;2022-08-16T06:27:57;41.97;;;38.30;;
15340;SDS011;7770;52.158;5.372;2022-08-16T06:30:43;41.97;;;38.27;;
15340;SDS011;7770;52.158;5.372;2022-08-16T06:33:30;42.03;;;38.27;;
15340;SDS011;7770;52.158;5.372;2022-08-16T06:36:16;42.20;;;38.53;;
15340;SDS011;7770;52.158;5.372;2022-08-16T06:39:02;41.13;;;37.33;;
15340;SDS011;7770;52.158;5.372;2022-08-16T06:41:48;40.33;;;36.87;;
15340;SDS011;7770;52.158;5.372;2022-08-16T06:44:34;40.57;;;37.07;;
15340;SDS011;7770;52.158;5.372;2022-08-16T06:47:20;40.03;;;36.57;;
15340;SDS011;7770;52.158;5.372;2022-08-16T06:50:06;39.23;;;35.67;;
15340;SDS011;7770;52.158;5.372;2022-08-16T06:52:53;40.43;;;36.57;;
15340;SDS011;7770;52.158;5.372;2022-08-16T06:55:39;39.87;;;34.97;;
15340;SDS011;7770;52.158;5.372;2022-08-16T06:58:27;42.87;;;35.00;;
15340;SDS011;7770;52.158;5.372;2022-08-16T07:01:13;38.90;;;34.80;;
15340;SDS011;7770;52.158;5.372;2022-08-16T07:03:59;35.87;;;32.80;;
15340;SDS011;7770;52.158;5.372;2022-08-16T07:06:45;37.13;;;33.67;;
15340;SDS011;7770;52.158;5.372;2022-08-16T07:09:31;37.10;;;33.60;;
15340;SDS011;7770;52.158;5.372;2022-08-16T07:12:17;35.83;;;32.60;;
15340;SDS011;7770;52.158;5.372;2022-08-16T07:15:03;34.70;;;31.73;;
15340;SDS011;7770;52.158;5.372;2022-08-16T07:17:50;34.10;;;30.37;;
15340;SDS011;7770;52.158;5.372;2022-08-16T07:20:37;33.40;;;30.60;;
15340;SDS011;7770;52.158;5.372;2022-08-16T07:23:24;32.77;;;29.87;;
15340;SDS011;7770;52.158;5.372;2022-08-16T07:26:20;31.10;;;28.30;;
15340;SDS011;7770;52.158;5.372;2022-08-16T07:29:09;30.53;;;27.73;;
15340;SDS011;7770;52.158;5.372;2022-08-16T07:31:55;29.90;;;27.23;;
15340;SDS011;7770;52.158;5.372;2022-08-16T07:34:41;30.53;;;27.83;;
15340;SDS011;7770;52.158;5.372;2022-08-16T07:37:27;28.77;;;26.27;;
15340;SDS011;7770;52.158;5.372;2022-08-16T07:40:13;28.73;;;26.13;;
15340;SDS011;7770;52.158;5.372;2022-08-16T07:42:59;31.20;;;28.50;;
15340;SDS011;7770;52.158;5.372;2022-08-16T07:45:46;30.17;;;27.57;;
15340;SDS011;7770;52.158;5.372;2022-08-16T07:48:33;29.50;;;27.00;;
15340;SDS011;7770;52.158;5.372;2022-08-16T07:51:19;27.92;;;25.60;;
15340;SDS011;7770;52.158;5.372;2022-08-16T07:54:06;27.33;;;24.95;;
15340;SDS011;7770;52.158;5.372;2022-08-16T07:56:53;26.38;;;24.30;;
15340;SDS011;7770;52.158;5.372;2022-08-16T07:59:40;25.02;;;22.98;;
15340;SDS011;7770;52.158;5.372;2022-08-16T08:02:28;26.20;;;23.92;;
15340;SDS011;7770;52.158;5.372;2022-08-16T08:05:14;25.30;;;23.13;;
15340;SDS011;7770;52.158;5.372;2022-08-16T08:08:01;24.40;;;22.52;;
15340;SDS011;7770;52.158;5.372;2022-08-16T08:10:48;22.02;;;20.20;;
15340;SDS011;7770;52.158;5.372;2022-08-16T08:13:35;22.85;;;20.50;;
15340;SDS011;7770;52.158;5.372;2022-08-16T08:16:21;24.05;;;21.80;;
15340;SDS011;7770;52.158;5.372;2022-08-16T08:19:08;23.35;;;20.88;;
15340;SDS011;7770;52.158;5.372;2022-08-16T08:21:56;22.58;;;20.60;;
15340;SDS011;7770;52.158;5.372;2022-08-16T08:24:42;25.73;;;23.67;;
15340;SDS011;7770;52.158;5.372;2022-08-16T08:27:29;22.50;;;20.63;;
15340;SDS011;7770;52.158;5.372;2022-08-16T08:30:15;21.90;;;20.13;;
15340;SDS011;7770;52.158;5.372;2022-08-16T08:33:02;22.60;;;20.70;;
15340;SDS011;7770;52.158;5.372;2022-08-16T08:35:48;23.27;;;21.38;;
15340;SDS011;7770;52.158;5.372;2022-08-16T08:38:34;23.80;;;21.73;;
15340;SDS011;7770;52.158;5.372;2022-08-16T08:41:20;23.30;;;21.20;;
15340;SDS011;7770;52.158;5.372;2022-08-16T08:44:11;21.52;;;19.83;;
15340;SDS011;7770;52.158;5.372;2022-08-16T08:46:59;21.73;;;20.02;;
15340;SDS011;7770;52.158;5.372;2022-08-16T08:49:47;22.92;;;21.23;;
15340;SDS011;7770;52.158;5.372;2022-08-16T08:52:33;24.05;;;22.25;;
15340;SDS011;7770;52.158;5.372;2022-08-16T08:55:19;25.95;;;23.75;;
15340;SDS011;7770;52.158;5.372;2022-08-16T08:58:07;21.25;;;19.60;;
15340;SDS011;7770;52.158;5.372;2022-08-16T09:00:53;21.25;;;19.35;;
15340;SDS011;7770;52.158;5.372;2022-08-16T09:03:41;23.52;;;21.50;;
15340;SDS011;7770;52.158;5.372;2022-08-16T09:06:27;23.08;;;21.13;;
15340;SDS011;7770;52.158;5.372;2022-08-16T09:09:13;20.95;;;19.13;;
15340;SDS011;7770;52.158;5.372;2022-08-16T09:11:59;22.77;;;20.85;;
15340;SDS011;7770;52.158;5.372;2022-08-16T09:14:46;24.60;;;22.52;;
15340;SDS011;7770;52.158;5.372;2022-08-16T09:17:32;22.98;;;21.17;;
15340;SDS011;7770;52.158;5.372;2022-08-16T09:20:18;23.33;;;21.02;;
15340;SDS011;7770;52.158;5.372;2022-08-16T09:23:05;21.17;;;19.23;;
15340;SDS011;7770;52.158;5.372;2022-08-16T09:25:51;21.63;;;19.90;;
15340;SDS011;7770;52.158;5.372;2022-08-16T09:28:37;17.50;;;16.13;;
15340;SDS011;7770;52.158;5.372;2022-08-16T09:31:23;19.88;;;18.35;;
15340;SDS011;7770;52.158;5.372;2022-08-16T09:34:09;18.33;;;16.92;;
15340;SDS011;7770;52.158;5.372;2022-08-16T09:36:55;17.13;;;15.82;;
15340;SDS011;7770;52.158;5.372;2022-08-16T09:39:42;18.15;;;16.48;;
15340;SDS011;7770;52.158;5.372;2022-08-16T09:42:28;20.05;;;18.15;;
15340;SDS011;7770;52.158;5.372;2022-08-16T09:45:15;22.52;;;20.20;;
15340;SDS011;7770;52.158;5.372;2022-08-16T09:48:01;18.45;;;16.70;;
15340;SDS011;7770;52.158;5.372;2022-08-16T09:50:47;22.00;;;20.08;;
15340;SDS011;7770;52.158;5.372;2022-08-16T09:53:33;21.10;;;19.02;;
15340;SDS011;7770;52.158;5.372;2022-08-16T09:56:29;18.75;;;16.95;;
15340;SDS011;7770;52.158;5.372;2022-08-16T09:59:18;18.45;;;16.95;;
15340;SDS011;7770;52.158;5.372;2022-08-16T10:02:07;16.88;;;15.43;;
15340;SDS011;7770;52.158;5.372;2022-08-16T10:04:55;18.75;;;17.23;;
15340;SDS011;7770;52.158;5.372;2022-08-16T10:07:43;17.58;;;16.13;;
15340;SDS011;7770;52.158;5.372;2022-08-16T10:10:31;20.80;;;13.02;;
15340;SDS011;7770;52.158;5.372;2022-08-16T10:13:18;16.45;;;14.88;;
15340;SDS011;7770;52.158;5.372;2022-08-16T10:16:04;14.45;;;13.20;;
15340;SDS011;7770;52.158;5.372;2022-08-16T10:18:53;16.30;;;14.75;;
15340;SDS011;7770;52.158;5.372;2022-08-16T10:21:39;16.50;;;14.15;;
15340;SDS011;7770;52.158;5.372;2022-08-16T10:24:26;15.90;;;14.50;;
15340;SDS011;7770;52.158;5.372;2022-08-16T10:27:12;15.55;;;14.25;;
15340;SDS011;7770;52.158;5.372;2022-08-16T10:29:58;16.40;;;14.70;;
15340;SDS011;7770;52.158;5.372;2022-08-16T10:32:44;13.38;;;12.20;;
15340;SDS011;7770;52.158;5.372;2022-08-16T10:35:30;14.57;;;13.40;;
15340;SDS011;7770;52.158;5.372;2022-08-16T10:38:16;15.10;;;13.65;;
15340;SDS011;7770;52.158;5.372;2022-08-16T10:41:03;16.70;;;15.13;;
15340;SDS011;7770;52.158;5.372;2022-08-16T10:43:51;17.02;;;15.52;;
15340;SDS011;7770;52.158;5.372;2022-08-16T10:46:37;18.35;;;16.75;;
15340;SDS011;7770;52.158;5.372;2022-08-16T10:49:23;17.15;;;15.77;;
15340;SDS011;7770;52.158;5.372;2022-08-16T10:52:09;17.00;;;15.68;;
15340;SDS011;7770;52.158;5.372;2022-08-16T10:54:55;17.50;;;15.88;;
15340;SDS011;7770;52.158;5.372;2022-08-16T10:57:41;17.70;;;16.20;;
15340;SDS011;7770;52.158;5.372;2022-08-16T11:00:27;19.98;;;18.45;;
15340;SDS011;7770;52.158;5.372;2022-08-16T11:03:13;18.83;;;17.23;;
15340;SDS011;7770;52.158;5.372;2022-08-16T11:06:00;23.13;;;20.90;;
15340;SDS011;7770;52.158;5.372;2022-08-16T11:08:49;22.30;;;19.70;;
15340;SDS011;7770;52.158;5.372;2022-08-16T11:11:35;22.52;;;19.83;;
15340;SDS011;7770;52.158;5.372;2022-08-16T11:14:21;29.02;;;18.10;;
15340;SDS011;7770;52.158;5.372;2022-08-16T11:17:07;21.48;;;19.80;;
15340;SDS011;7770;52.158;5.372;2022-08-16T11:19:55;20.20;;;18.58;;
15340;SDS011;7770;52.158;5.372;2022-08-16T11:22:41;22.00;;;19.77;;
15340;SDS011;7770;52.158;5.372;2022-08-16T11:25:29;23.58;;;21.65;;
15340;SDS011;7770;52.158;5.372;2022-08-16T11:28:16;22.45;;;20.23;;
15340;SDS011;7770;52.158;5.372;2022-08-16T11:31:04;24.90;;;22.55;;
15340;SDS011;7770;52.158;5.372;2022-08-16T11:33:50;24.60;;;22.20;;
15340;SDS011;7770;52.158;5.372;2022-08-16T11:36:36;23.88;;;21.77;;
15340;SDS011;7770;52.158;5.372;2022-08-16T11:39:23;25.70;;;23.35;;
15340;SDS011;7770;52.158;5.372;2022-08-16T11:42:09;25.88;;;23.52;;
15340;SDS011;7770;52.158;5.372;2022-08-16T11:44:55;26.05;;;23.58;;
15340;SDS011;7770;52.158;5.372;2022-08-16T11:47:41;26.95;;;24.30;;
15340;SDS011;7770;52.158;5.372;2022-08-16T11:50:28;24.63;;;22.10;;
15340;SDS011;7770;52.158;5.372;2022-08-16T11:53:17;22.95;;;21.13;;
15340;SDS011;7770;52.158;5.372;2022-08-16T11:56:05;24.80;;;22.63;;
15340;SDS011;7770;52.158;5.372;2022-08-16T11:58:51;20.23;;;18.33;;
15340;SDS011;7770;52.158;5.372;2022-08-16T12:01:37;22.30;;;20.13;;
15340;SDS011;7770;52.158;5.372;2022-08-16T12:04:24;21.13;;;19.15;;
15340;SDS011;7770;52.158;5.372;2022-08-16T12:07:10;18.70;;;16.77;;
15340;SDS011;7770;52.158;5.372;2022-08-16T12:09:56;16.35;;;14.95;;
15340;SDS011;7770;52.158;5.372;2022-08-16T12:12:42;16.88;;;15.20;;
15340;SDS011;7770;52.158;5.372;2022-08-16T12:15:29;21.23;;;19.52;;
15340;SDS011;7770;52.158;5.372;2022-08-16T12:18:15;17.90;;;16.25;;
15340;SDS011;7770;52.158;5.372;2022-08-16T12:21:01;19.35;;;17.65;;
15340;SDS011;7770;52.158;5.372;2022-08-16T12:23:48;27.48;;;25.25;;
15340;SDS011;7770;52.158;5.372;2022-08-16T12:26:34;23.75;;;21.40;;
15340;SDS011;7770;52.158;5.372;2022-08-16T12:29:20;23.45;;;21.23;;
15340;SDS011;7770;52.158;5.372;2022-08-16T12:32:07;27.35;;;24.65;;
15340;SDS011;7770;52.158;5.372;2022-08-16T12:34:53;29.10;;;26.52;;
15340;SDS011;7770;52.158;5.372;2022-08-16T12:37:40;25.58;;;23.05;;
15340;SDS011;7770;52.158;5.372;2022-08-16T12:40:29;24.23;;;21.88;;
15340;SDS011;7770;52.158;5.372;2022-08-16T12:43:19;29.23;;;26.35;;
15340;SDS011;7770;52.158;5.372;2022-08-16T12:46:07;23.83;;;21.77;;
15340;SDS011;7770;52.158;5.372;2022-08-16T12:48:57;23.30;;;21.40;;
15340;SDS011;7770;52.158;5.372;2022-08-16T12:51:45;32.63;;;30.00;;
15340;SDS011;7770;52.158;5.372;2022-08-16T12:54:33;28.58;;;26.38;;
15340;SDS011;7770;52.158;5.372;2022-08-16T12:57:19;29.50;;;27.17;;
15340;SDS011;7770;52.158;5.372;2022-08-16T13:00:11;31.30;;;28.63;;
15340;SDS011;7770;52.158;5.372;2022-08-16T13:03:01;31.58;;;28.80;;
15340;SDS011;7770;52.158;5.372;2022-08-16T13:05:48;30.55;;;28.00;;
15340;SDS011;7770;52.158;5.372;2022-08-16T13:08:35;28.58;;;26.10;;
15340;SDS011;7770;52.158;5.372;2022-08-16T13:11:23;34.72;;;26.92;;
15340;SDS011;7770;52.158;5.372;2022-08-16T13:14:26;33.22;;;30.27;;
15340;SDS011;7770;52.158;5.372;2022-08-16T13:17:21;31.58;;;28.65;;
15340;SDS011;7770;52.158;5.372;2022-08-16T13:20:11;29.50;;;26.75;;
15340;SDS011;7770;52.158;5.372;2022-08-16T13:23:01;31.63;;;28.83;;
15340;SDS011;7770;52.158;5.372;2022-08-16T13:25:49;30.20;;;27.55;;
15340;SDS011;7770;52.158;5.372;2022-08-16T13:28:36;24.50;;;22.33;;
15340;SDS011;7770;52.158;5.372;2022-08-16T13:31:22;24.98;;;22.67;;
15340;SDS011;7770;52.158;5.372;2022-08-16T13:34:08;20.63;;;18.95;;
15340;SDS011;7770;52.158;5.372;2022-08-16T13:36:54;18.75;;;16.92;;
15340;SDS011;7770;52.158;5.372;2022-08-16T13:39:40;18.13;;;16.38;;
15340;SDS011;7770;52.158;5.372;2022-08-16T13:42:26;18.75;;;17.20;;
15340;SDS011;7770;52.158;5.372;2022-08-16T13:45:12;17.38;;;15.75;;
15340;SDS011;7770;52.158;5.372;2022-08-16T13:48:00;16.20;;;14.55;;
15340;SDS011;7770;52.158;5.372;2022-08-16T13:50:47;14.85;;;13.43;;
15340;SDS011;7770;52.158;5.372;2022-08-16T13:53:33;14.48;;;13.02;;
15340;SDS011;7770;52.158;5.372;2022-08-16T13:56:19;16.13;;;14.93;;
15340;SDS011;7770;52.158;5.372;2022-08-16T13:59:12;14.90;;;13.52;;
15340;SDS011;7770;52.158;5.372;2022-08-16T14:01:58;15.38;;;13.98;;
15340;SDS011;7770;52.158;5.372;2022-08-16T14:04:46;18.33;;;16.58;;
15340;SDS011;7770;52.158;5.372;2022-08-16T14:07:32;17.55;;;15.90;;
15340;SDS011;7770;52.158;5.372;2022-08-16T14:10:18;15.40;;;13.95;;
15340;SDS011;7770;52.158;5.372;2022-08-16T14:13:05;17.00;;;15.60;;
15340;SDS011;7770;52.158;5.372;2022-08-16T14:15:51;17.05;;;15.50;;
15340;SDS011;7770;52.158;5.372;2022-08-16T14:18:37;16.77;;;15.32;;
15340;SDS011;7770;52.158;5.372;2022-08-16T14:21:23;18.40;;;16.90;;
15340;SDS011;7770;52.158;5.372;2022-08-16T14:24:10;16.90;;;15.40;;
15340;SDS011;7770;52.158;5.372;2022-08-16T14:26:58;19.63;;;17.80;;
15340;SDS011;7770;52.158;5.372;2022-08-16T14:29:45;20.00;;;18.23;;
15340;SDS011;7770;52.158;5.372;2022-08-16T14:32:33;22.58;;;20.77;;
15340;SDS011;7770;52.158;5.372;2022-08-16T14:35:24;23.02;;;20.73;;
15340;SDS011;7770;52.158;5.372;2022-08-16T14:38:13;21.85;;;20.02;;
15340;SDS011;7770;52.158;5.372;2022-08-16T14:41:01;21.52;;;19.58;;
15340;SDS011;7770;52.158;5.372;2022-08-16T14:43:47;29.25;;;26.80;;
15340;SDS011;7770;52.158;5.372;2022-08-16T14:46:33;28.25;;;25.75;;
15340;SDS011;7770;52.158;5.372;2022-08-16T14:49:19;29.05;;;26.35;;
15340;SDS011;7770;52.158;5.372;2022-08-16T14:52:12;26.42;;;24.33;;
15340;SDS011;7770;52.158;5.372;2022-08-16T14:55:02;31.08;;;28.27;;
15340;SDS011;7770;52.158;5.372;2022-08-16T14:57:49;30.67;;;27.98;;
15340;SDS011;7770;52.158;5.372;2022-08-16T15:00:35;31.83;;;29.17;;
15340;SDS011;7770;52.158;5.372;2022-08-16T15:03:22;32.65;;;29.73;;
15340;SDS011;7770;52.158;5.372;2022-08-16T15:06:08;32.30;;;29.70;;
15340;SDS011;7770;52.158;5.372;2022-08-16T15:08:54;31.38;;;28.52;;
15340;SDS011;7770;52.158;5.372;2022-08-16T15:11:41;30.20;;;27.52;;
15340;SDS011;7770;52.158;5.372;2022-08-16T15:14:27;30.23;;;27.80;;
15340;SDS011;7770;52.158;5.372;2022-08-16T15:17:13;30.30;;;27.80;;
15340;SDS011;7770;52.158;5.372;2022-08-16T15:19:59;33.83;;;31.13;;
15340;SDS011;7770;52.158;5.372;2022-08-16T15:22:47;33.67;;;30.83;;
15340;SDS011;7770;52.158;5.372;2022-08-16T15:25:36;31.92;;;29.25;;
15340;SDS011;7770;52.158;5.372;2022-08-16T15:28:26;33.22;;;30.40;;
15340;SDS011;7770;52.158;5.372;2022-08-16T15:31:13;36.72;;;33.97;;
15340;SDS011;7770;52.158;5.372;2022-08-16T15:33:59;36.20;;;33.50;;
15340;SDS011;7770;52.158;5.372;2022-08-16T15:36:45;37.67;;;34.58;;
15340;SDS011;7770;52.158;5.372;2022-08-16T15:39:32;38.33;;;35.05;;
15340;SDS011;7770;52.158;5.372;2022-08-16T15:42:17;35.63;;;32.10;;
15340;SDS011;7770;52.158;5.372;2022-08-16T15:45:05;32.78;;;30.10;;
15340;SDS011;7770;52.158;5.372;2022-08-16T15:47:52;31.23;;;28.45;;
15340;SDS011;7770;52.158;5.372;2022-08-16T15:50:40;30.67;;;28.17;;
15340;SDS011;7770;52.158;5.372;2022-08-16T15:53:27;32.72;;;29.60;;
15340;SDS011;7770;52.158;5.372;2022-08-16T15:56:15;31.48;;;28.83;;
15340;SDS011;7770;52.158;5.372;2022-08-16T15:59:02;31.13;;;28.67;;
15340;SDS011;7770;52.158;5.372;2022-08-16T16:01:48;30.70;;;28.10;;
15340;SDS011;7770;52.158;5.372;2022-08-16T16:04:35;29.83;;;27.05;;
15340;SDS011;7770;52.158;5.372;2022-08-16T16:07:22;29.30;;;26.67;;
15340;SDS011;7770;52.158;5.372;2022-08-16T16:10:09;32.22;;;29.15;;
15340;SDS011;7770;52.158;5.372;2022-08-16T16:12:56;32.63;;;29.58;;
15340;SDS011;7770;52.158;5.372;2022-08-16T16:15:46;33.80;;;30.73;;
15340;SDS011;7770;52.158;5.372;2022-08-16T16:18:35;33.15;;;30.20;;
15340;SDS011;7770;52.158;5.372;2022-08-16T16:21:21;34.17;;;30.98;;
15340;SDS011;7770;52.158;5.372;2022-08-16T16:24:07;35.22;;;31.92;;
15340;SDS011;7770;52.158;5.372;2022-08-16T16:26:53;33.13;;;29.92;;
15340;SDS011;7770;52.158;5.372;2022-08-16T16:29:40;33.05;;;30.15;;